sensor_id;sensor_type;location;lat;lon;timestamp;P1;durP1;ratioP1;P2;durP2;ratioP2
44985;SDS011;30721;49.380;7.736;2023-06-22T00:01:02;8.38;;;7.57;;
44985;SDS011;30721;49.380;7.736;2023-06-22T00:03:27;7.88;;;7.18;;
44985;SDS011;30721;49.380;7.736;2023-06-22T00:05:53;7.43;;;6.65;;
44985;SDS011;30721;49.380;7.736;2023-06-22T00:08:19;7.50;;;6.80;;
44985;SDS011;30721;49.380;7.736;2023-06-22T00:10:45;7.20;;;6.50;;
44985;SDS011;30721;49.380;7.736;2023-06-22T00:13:11;7.47;;;6.68;;
44985;SDS011;30721;49.380;7.736;2023-06-22T00:15:37;7.63;;;6.93;;
44985;SDS011;30721;49.380;7.736;2023-06-22T00:18:04;8.82;;;8.00;;
44985;SDS011;30721;49.380;7.736;2023-06-22T00:23:12;10.63;;;8.13;;
44985;SDS011;30721;49.380;7.736;2023-06-22T00:25:39;9.27;;;8.00;;
44985;SDS011;30721;49.380;7.736;2023-06-22T00:28:07;9.50;;;7.97;;
44985;SDS011;30721;49.380;7.736;2023-06-22T00:30:33;9.50;;;7.78;;
44985;SDS011;30721;49.380;7.736;2023-06-22T00:33:00;8.88;;;7.90;;
44985;SDS011;30721;49.380;7.736;2023-06-22T00:38:01;9.43;;;7.43;;
44985;SDS011;30721;49.380;7.736;2023-06-22T00:40:28;8.10;;;7.30;;
44985;SDS011;30721;49.380;7.736;2023-06-22T00:45:29;9.32;;;7.85;;
44985;SDS011;30721;49.380;7.736;2023-06-22T00:47:56;7.45;;;6.75;;
44985;SDS011;30721;49.380;7.736;2023-06-22T00:50:23;7.90;;;7.15;;
44985;SDS011;30721;49.380;7.736;2023-06-22T00:52:51;8.82;;;7.85;;
44985;SDS011;30721;49.380;7.736;2023-06-22T00:55:18;8.80;;;7.90;;
44985;SDS011;30721;49.380;7.736;2023-06-22T00:57:45;8.82;;;7.85;;
44985;SDS011;30721;49.380;7.736;2023-06-22T01:00:11;8.88;;;8.05;;
44985;SDS011;30721;49.380;7.736;2023-06-22T01:02:44;9.40;;;8.40;;
44985;SDS011;30721;49.380;7.736;2023-06-22T01:05:17;8.77;;;7.70;;
44985;SDS011;30721;49.380;7.736;2023-06-22T01:07:53;9.02;;;8.13;;
44985;SDS011;30721;49.380;7.736;2023-06-22T01:10:44;9.75;;;8.70;;
44985;SDS011;30721;49.380;7.736;2023-06-22T01:16:07;8.52;;;7.60;;
44985;SDS011;30721;49.380;7.736;2023-06-22T01:18:36;9.95;;;8.93;;
44985;SDS011;30721;49.380;7.736;2023-06-22T01:21:05;8.93;;;8.02;;
44985;SDS011;30721;49.380;7.736;2023-06-22T01:29:01;9.57;;;8.50;;
44985;SDS011;30721;49.380;7.736;2023-06-22T01:31:29;9.65;;;8.52;;
44985;SDS011;30721;49.380;7.736;2023-06-22T01:33:55;9.77;;;8.88;;
44985;SDS011;30721;49.380;7.736;2023-06-22T01:44:08;9.25;;;8.32;;
44985;SDS011;30721;49.380;7.736;2023-06-22T01:46:37;9.63;;;8.73;;
44985;SDS011;30721;49.380;7.736;2023-06-22T01:49:03;9.30;;;8.40;;
44985;SDS011;30721;49.380;7.736;2023-06-22T01:54:05;9.32;;;8.32;;
44985;SDS011;30721;49.380;7.736;2023-06-22T01:56:32;8.98;;;8.10;;
44985;SDS011;30721;49.380;7.736;2023-06-22T02:01:35;8.52;;;7.65;;
44985;SDS011;30721;49.380;7.736;2023-06-22T02:09:14;9.48;;;8.57;;
44985;SDS011;30721;49.380;7.736;2023-06-22T02:11:42;9.18;;;8.23;;
44985;SDS011;30721;49.380;7.736;2023-06-22T02:14:09;9.18;;;8.38;;
44985;SDS011;30721;49.380;7.736;2023-06-22T02:16:35;8.38;;;7.60;;
44985;SDS011;30721;49.380;7.736;2023-06-22T02:21:42;9.32;;;8.27;;
44985;SDS011;30721;49.380;7.736;2023-06-22T02:24:26;9.07;;;8.23;;
44985;SDS011;30721;49.380;7.736;2023-06-22T02:26:51;9.07;;;8.20;;
44985;SDS011;30721;49.380;7.736;2023-06-22T02:29:17;9.75;;;8.85;;
44985;SDS011;30721;49.380;7.736;2023-06-22T02:31:43;9.75;;;8.75;;
44985;SDS011;30721;49.380;7.736;2023-06-22T02:34:08;10.27;;;9.32;;
44985;SDS011;30721;49.380;7.736;2023-06-22T02:36:33;9.48;;;8.48;;
44985;SDS011;30721;49.380;7.736;2023-06-22T02:38:59;9.50;;;8.45;;
44985;SDS011;30721;49.380;7.736;2023-06-22T02:41:26;11.00;;;9.68;;
44985;SDS011;30721;49.380;7.736;2023-06-22T02:43:52;10.68;;;9.30;;
44985;SDS011;30721;49.380;7.736;2023-06-22T02:48:53;10.38;;;9.32;;
44985;SDS011;30721;49.380;7.736;2023-06-22T02:51:18;10.57;;;9.45;;
44985;SDS011;30721;49.380;7.736;2023-06-22T02:53:44;11.10;;;10.10;;
44985;SDS011;30721;49.380;7.736;2023-06-22T02:56:10;10.77;;;9.68;;
44985;SDS011;30721;49.380;7.736;2023-06-22T03:03:45;10.63;;;9.63;;
44985;SDS011;30721;49.380;7.736;2023-06-22T03:06:11;11.40;;;10.07;;
44985;SDS011;30721;49.380;7.736;2023-06-22T03:11:15;10.00;;;8.95;;
44985;SDS011;30721;49.380;7.736;2023-06-22T03:13:40;9.32;;;8.43;;
44985;SDS011;30721;49.380;7.736;2023-06-22T03:16:06;10.65;;;9.65;;
44985;SDS011;30721;49.380;7.736;2023-06-22T03:18:31;12.13;;;9.57;;
44985;SDS011;30721;49.380;7.736;2023-06-22T03:20:58;10.63;;;9.32;;
44985;SDS011;30721;49.380;7.736;2023-06-22T03:23:23;9.07;;;8.13;;
44985;SDS011;30721;49.380;7.736;2023-06-22T03:25:49;9.45;;;8.55;;
44985;SDS011;30721;49.380;7.736;2023-06-22T03:28:14;8.48;;;7.68;;
44985;SDS011;30721;49.380;7.736;2023-06-22T03:30:40;8.82;;;7.95;;
44985;SDS011;30721;49.380;7.736;2023-06-22T03:33:05;8.90;;;8.00;;
44985;SDS011;30721;49.380;7.736;2023-06-22T03:35:30;9.60;;;7.85;;
44985;SDS011;30721;49.380;7.736;2023-06-22T03:37:56;16.23;;;8.80;;
44985;SDS011;30721;49.380;7.736;2023-06-22T03:40:21;9.98;;;8.98;;
44985;SDS011;30721;49.380;7.736;2023-06-22T03:42:47;9.10;;;8.20;;
44985;SDS011;30721;49.380;7.736;2023-06-22T03:45:12;9.55;;;8.55;;
44985;SDS011;30721;49.380;7.736;2023-06-22T03:47:38;8.88;;;8.05;;
44985;SDS011;30721;49.380;7.736;2023-06-22T03:50:03;10.10;;;9.10;;
44985;SDS011;30721;49.380;7.736;2023-06-22T03:52:29;9.40;;;8.23;;
44985;SDS011;30721;49.380;7.736;2023-06-22T03:54:55;9.57;;;8.68;;
44985;SDS011;30721;49.380;7.736;2023-06-22T03:57:21;10.10;;;9.20;;
44985;SDS011;30721;49.380;7.736;2023-06-22T03:59:46;9.85;;;8.85;;
44985;SDS011;30721;49.380;7.736;2023-06-22T04:02:12;10.20;;;8.98;;
44985;SDS011;30721;49.380;7.736;2023-06-22T04:04:37;10.32;;;9.27;;
44985;SDS011;30721;49.380;7.736;2023-06-22T04:07:04;9.73;;;8.77;;
44985;SDS011;30721;49.380;7.736;2023-06-22T04:09:30;9.68;;;8.75;;
44985;SDS011;30721;49.380;7.736;2023-06-22T04:11:55;9.68;;;8.75;;
44985;SDS011;30721;49.380;7.736;2023-06-22T04:14:20;9.52;;;8.57;;
44985;SDS011;30721;49.380;7.736;2023-06-22T04:16:46;10.35;;;9.35;;
44985;SDS011;30721;49.380;7.736;2023-06-22T04:19:11;10.50;;;9.50;;
44985;SDS011;30721;49.380;7.736;2023-06-22T04:21:41;10.65;;;9.60;;
44985;SDS011;30721;49.380;7.736;2023-06-22T04:24:08;11.27;;;10.07;;
44985;SDS011;30721;49.380;7.736;2023-06-22T04:26:33;11.35;;;10.25;;
44985;SDS011;30721;49.380;7.736;2023-06-22T04:29:02;11.13;;;10.00;;
44985;SDS011;30721;49.380;7.736;2023-06-22T04:31:30;11.00;;;9.90;;
44985;SDS011;30721;49.380;7.736;2023-06-22T04:34:01;10.93;;;9.82;;
44985;SDS011;30721;49.380;7.736;2023-06-22T04:36:37;12.63;;;11.32;;
44985;SDS011;30721;49.380;7.736;2023-06-22T04:39:04;12.25;;;10.82;;
44985;SDS011;30721;49.380;7.736;2023-06-22T04:41:31;11.63;;;10.30;;
44985;SDS011;30721;49.380;7.736;2023-06-22T04:44:06;12.13;;;10.93;;
44985;SDS011;30721;49.380;7.736;2023-06-22T04:46:50;12.25;;;10.88;;
44985;SDS011;30721;49.380;7.736;2023-06-22T04:49:19;11.85;;;10.27;;
44985;SDS011;30721;49.380;7.736;2023-06-22T04:51:45;12.52;;;11.32;;
44985;SDS011;30721;49.380;7.736;2023-06-22T04:54:13;12.23;;;10.95;;
44985;SDS011;30721;49.380;7.736;2023-06-22T04:56:39;12.77;;;11.45;;
44985;SDS011;30721;49.380;7.736;2023-06-22T04:59:05;13.40;;;12.00;;
44985;SDS011;30721;49.380;7.736;2023-06-22T05:01:31;13.60;;;11.43;;
44985;SDS011;30721;49.380;7.736;2023-06-22T05:03:57;13.40;;;12.07;;
44985;SDS011;30721;49.380;7.736;2023-06-22T05:06:25;15.07;;;12.07;;
44985;SDS011;30721;49.380;7.736;2023-06-22T05:08:52;13.23;;;11.93;;
44985;SDS011;30721;49.380;7.736;2023-06-22T05:11:27;12.68;;;11.45;;
44985;SDS011;30721;49.380;7.736;2023-06-22T05:13:53;13.18;;;11.88;;
44985;SDS011;30721;49.380;7.736;2023-06-22T05:16:19;14.23;;;12.70;;
44985;SDS011;30721;49.380;7.736;2023-06-22T05:18:52;15.32;;;13.63;;
44985;SDS011;30721;49.380;7.736;2023-06-22T05:21:18;14.05;;;12.68;;
44985;SDS011;30721;49.380;7.736;2023-06-22T05:23:44;13.80;;;12.50;;
44985;SDS011;30721;49.380;7.736;2023-06-22T05:26:09;14.63;;;12.68;;
44985;SDS011;30721;49.380;7.736;2023-06-22T05:28:35;13.95;;;12.50;;
44985;SDS011;30721;49.380;7.736;2023-06-22T05:31:00;15.20;;;13.63;;
44985;SDS011;30721;49.380;7.736;2023-06-22T05:33:26;14.20;;;12.73;;
44985;SDS011;30721;49.380;7.736;2023-06-22T05:35:51;13.68;;;12.27;;
44985;SDS011;30721;49.380;7.736;2023-06-22T05:38:17;15.20;;;12.52;;
44985;SDS011;30721;49.380;7.736;2023-06-22T05:40:42;13.75;;;12.32;;
44985;SDS011;30721;49.380;7.736;2023-06-22T05:43:08;15.45;;;13.95;;
44985;SDS011;30721;49.380;7.736;2023-06-22T05:45:33;15.45;;;13.82;;
44985;SDS011;30721;49.380;7.736;2023-06-22T05:47:58;15.18;;;12.82;;
44985;SDS011;30721;49.380;7.736;2023-06-22T05:50:27;14.73;;;13.18;;
44985;SDS011;30721;49.380;7.736;2023-06-22T05:52:52;14.43;;;13.02;;
44985;SDS011;30721;49.380;7.736;2023-06-22T05:55:18;13.10;;;11.93;;
44985;SDS011;30721;49.380;7.736;2023-06-22T05:57:44;14.57;;;13.07;;
44985;SDS011;30721;49.380;7.736;2023-06-22T06:00:10;15.18;;;13.60;;
44985;SDS011;30721;49.380;7.736;2023-06-22T06:02:36;14.55;;;13.15;;
44985;SDS011;30721;49.380;7.736;2023-06-22T06:05:02;14.00;;;12.70;;
44985;SDS011;30721;49.380;7.736;2023-06-22T06:07:28;13.38;;;12.07;;
44985;SDS011;30721;49.380;7.736;2023-06-22T06:09:54;13.48;;;12.18;;
44985;SDS011;30721;49.380;7.736;2023-06-22T06:12:20;14.52;;;13.13;;
44985;SDS011;30721;49.380;7.736;2023-06-22T06:14:45;13.93;;;12.57;;
44985;SDS011;30721;49.380;7.736;2023-06-22T06:17:12;13.27;;;12.00;;
44985;SDS011;30721;49.380;7.736;2023-06-22T06:19:37;12.73;;;11.60;;
44985;SDS011;30721;49.380;7.736;2023-06-22T06:22:03;13.80;;;12.50;;
44985;SDS011;30721;49.380;7.736;2023-06-22T06:24:28;13.82;;;12.48;;
44985;SDS011;30721;49.380;7.736;2023-06-22T06:26:54;13.50;;;12.10;;
44985;SDS011;30721;49.380;7.736;2023-06-22T06:29:20;13.43;;;12.23;;
44985;SDS011;30721;49.380;7.736;2023-06-22T06:31:45;12.90;;;11.70;;
44985;SDS011;30721;49.380;7.736;2023-06-22T06:34:11;12.65;;;11.45;;
44985;SDS011;30721;49.380;7.736;2023-06-22T06:36:36;13.57;;;12.25;;
44985;SDS011;30721;49.380;7.736;2023-06-22T06:39:02;13.13;;;11.82;;
44985;SDS011;30721;49.380;7.736;2023-06-22T06:41:28;13.50;;;12.10;;
44985;SDS011;30721;49.380;7.736;2023-06-22T06:43:54;14.02;;;12.57;;
44985;SDS011;30721;49.380;7.736;2023-06-22T06:46:19;13.07;;;11.88;;
44985;SDS011;30721;49.380;7.736;2023-06-22T06:48:45;13.90;;;12.60;;
44985;SDS011;30721;49.380;7.736;2023-06-22T06:51:10;13.27;;;11.98;;
44985;SDS011;30721;49.380;7.736;2023-06-22T06:53:37;12.85;;;11.57;;
44985;SDS011;30721;49.380;7.736;2023-06-22T06:56:03;11.18;;;10.15;;
44985;SDS011;30721;49.380;7.736;2023-06-22T06:58:30;12.10;;;11.02;;
44985;SDS011;30721;49.380;7.736;2023-06-22T07:00:56;12.07;;;10.88;;
44985;SDS011;30721;49.380;7.736;2023-06-22T07:03:21;11.65;;;10.65;;
44985;SDS011;30721;49.380;7.736;2023-06-22T07:05:46;11.05;;;10.07;;
44985;SDS011;30721;49.380;7.736;2023-06-22T07:08:12;11.38;;;10.25;;
44985;SDS011;30721;49.380;7.736;2023-06-22T07:10:37;11.93;;;10.82;;
44985;SDS011;30721;49.380;7.736;2023-06-22T07:13:03;11.50;;;10.40;;
44985;SDS011;30721;49.380;7.736;2023-06-22T07:15:28;11.35;;;10.35;;
44985;SDS011;30721;49.380;7.736;2023-06-22T07:17:54;10.20;;;9.30;;
44985;SDS011;30721;49.380;7.736;2023-06-22T07:20:19;9.23;;;8.32;;
44985;SDS011;30721;49.380;7.736;2023-06-22T07:22:45;9.35;;;8.55;;
44985;SDS011;30721;49.380;7.736;2023-06-22T07:25:11;10.02;;;9.23;;
44985;SDS011;30721;49.380;7.736;2023-06-22T07:27:39;9.38;;;8.48;;
44985;SDS011;30721;49.380;7.736;2023-06-22T07:30:09;8.98;;;8.18;;
44985;SDS011;30721;49.380;7.736;2023-06-22T07:32:35;8.05;;;7.28;;
44985;SDS011;30721;49.380;7.736;2023-06-22T07:35:01;9.05;;;8.15;;
44985;SDS011;30721;49.380;7.736;2023-06-22T07:37:27;8.30;;;7.20;;
44985;SDS011;30721;49.380;7.736;2023-06-22T07:39:54;7.97;;;7.20;;
44985;SDS011;30721;49.380;7.736;2023-06-22T07:42:26;7.25;;;6.55;;
44985;SDS011;30721;49.380;7.736;2023-06-22T07:44:52;7.90;;;7.20;;
44985;SDS011;30721;49.380;7.736;2023-06-22T07:47:18;7.03;;;6.43;;
44985;SDS011;30721;49.380;7.736;2023-06-22T07:49:44;8.00;;;7.30;;
44985;SDS011;30721;49.380;7.736;2023-06-22T07:52:10;8.18;;;7.32;;
44985;SDS011;30721;49.380;7.736;2023-06-22T07:54:36;7.68;;;6.97;;
44985;SDS011;30721;49.380;7.736;2023-06-22T07:57:02;7.75;;;7.03;;
44985;SDS011;30721;49.380;7.736;2023-06-22T07:59:28;7.75;;;7.05;;
44985;SDS011;30721;49.380;7.736;2023-06-22T08:01:54;7.13;;;6.47;;
44985;SDS011;30721;49.380;7.736;2023-06-22T08:04:20;7.55;;;6.85;;
44985;SDS011;30721;49.380;7.736;2023-06-22T08:06:46;7.90;;;7.20;;
44985;SDS011;30721;49.380;7.736;2023-06-22T08:09:11;7.32;;;6.72;;
44985;SDS011;30721;49.380;7.736;2023-06-22T08:11:37;6.80;;;6.20;;
44985;SDS011;30721;49.380;7.736;2023-06-22T08:14:02;8.90;;;7.30;;
44985;SDS011;30721;49.380;7.736;2023-06-22T08:16:28;8.05;;;7.25;;
44985;SDS011;30721;49.380;7.736;2023-06-22T08:18:53;7.47;;;6.82;;
44985;SDS011;30721;49.380;7.736;2023-06-22T08:21:19;7.55;;;6.85;;
44985;SDS011;30721;49.380;7.736;2023-06-22T08:23:45;7.43;;;6.55;;
44985;SDS011;30721;49.380;7.736;2023-06-22T08:26:10;8.05;;;7.35;;
44985;SDS011;30721;49.380;7.736;2023-06-22T08:28:36;7.43;;;6.72;;
44985;SDS011;30721;49.380;7.736;2023-06-22T08:31:01;6.82;;;6.18;;
44985;SDS011;30721;49.380;7.736;2023-06-22T08:33:27;6.47;;;5.95;;
44985;SDS011;30721;49.380;7.736;2023-06-22T08:35:55;6.88;;;6.20;;
44985;SDS011;30721;49.380;7.736;2023-06-22T08:38:21;7.28;;;6.68;;
44985;SDS011;30721;49.380;7.736;2023-06-22T08:40:48;6.50;;;5.90;;
44985;SDS011;30721;49.380;7.736;2023-06-22T08:43:14;6.95;;;6.35;;
44985;SDS011;30721;49.380;7.736;2023-06-22T08:45:39;7.40;;;6.70;;
44985;SDS011;30721;49.380;7.736;2023-06-22T08:48:05;6.55;;;6.05;;
44985;SDS011;30721;49.380;7.736;2023-06-22T08:50:30;6.90;;;6.30;;
44985;SDS011;30721;49.380;7.736;2023-06-22T08:52:56;7.03;;;6.43;;
44985;SDS011;30721;49.380;7.736;2023-06-22T08:55:22;8.05;;;7.25;;
44985;SDS011;30721;49.380;7.736;2023-06-22T08:57:47;7.55;;;6.85;;
44985;SDS011;30721;49.380;7.736;2023-06-22T09:00:13;6.30;;;5.80;;
44985;SDS011;30721;49.380;7.736;2023-06-22T09:02:43;7.70;;;7.00;;
44985;SDS011;30721;49.380;7.736;2023-06-22T09:05:09;7.78;;;7.05;;
44985;SDS011;30721;49.380;7.736;2023-06-22T09:07:35;7.65;;;6.75;;
44985;SDS011;30721;49.380;7.736;2023-06-22T09:10:00;8.65;;;7.75;;
44985;SDS011;30721;49.380;7.736;2023-06-22T09:12:26;7.50;;;6.90;;
44985;SDS011;30721;49.380;7.736;2023-06-22T09:14:52;7.13;;;6.47;;
44985;SDS011;30721;49.380;7.736;2023-06-22T09:17:18;7.72;;;6.35;;
44985;SDS011;30721;49.380;7.736;2023-06-22T09:19:44;7.72;;;7.00;;
44985;SDS011;30721;49.380;7.736;2023-06-22T09:22:10;7.43;;;6.65;;
44985;SDS011;30721;49.380;7.736;2023-06-22T09:24:35;7.07;;;6.35;;
44985;SDS011;30721;49.380;7.736;2023-06-22T09:27:01;8.43;;;6.63;;
44985;SDS011;30721;49.380;7.736;2023-06-22T09:29:27;7.30;;;6.60;;
44985;SDS011;30721;49.380;7.736;2023-06-22T09:31:52;7.18;;;6.45;;
44985;SDS011;30721;49.380;7.736;2023-06-22T09:34:19;6.28;;;5.68;;
44985;SDS011;30721;49.380;7.736;2023-06-22T09:36:46;6.55;;;5.80;;
44985;SDS011;30721;49.380;7.736;2023-06-22T09:39:12;7.03;;;6.32;;
44985;SDS011;30721;49.380;7.736;2023-06-22T09:41:38;6.88;;;6.18;;
44985;SDS011;30721;49.380;7.736;2023-06-22T09:44:03;6.50;;;5.90;;
44985;SDS011;30721;49.380;7.736;2023-06-22T09:46:29;7.30;;;5.75;;
44985;SDS011;30721;49.380;7.736;2023-06-22T09:48:55;7.35;;;6.63;;
44985;SDS011;30721;49.380;7.736;2023-06-22T09:51:21;7.45;;;6.75;;
44985;SDS011;30721;49.380;7.736;2023-06-22T09:53:48;6.70;;;6.10;;
44985;SDS011;30721;49.380;7.736;2023-06-22T09:56:14;7.47;;;6.22;;
44985;SDS011;30721;49.380;7.736;2023-06-22T09:58:41;6.32;;;5.22;;
44985;SDS011;30721;49.380;7.736;2023-06-22T10:01:07;7.43;;;5.45;;
44985;SDS011;30721;49.380;7.736;2023-06-22T10:03:33;7.57;;;6.10;;
44985;SDS011;30721;49.380;7.736;2023-06-22T10:05:58;5.35;;;4.68;;
44985;SDS011;30721;49.380;7.736;2023-06-22T10:08:27;7.68;;;6.55;;
44985;SDS011;30721;49.380;7.736;2023-06-22T10:10:53;9.48;;;5.57;;
44985;SDS011;30721;49.380;7.736;2023-06-22T10:13:18;7.72;;;5.63;;
44985;SDS011;30721;49.380;7.736;2023-06-22T10:15:44;6.30;;;5.30;;
44985;SDS011;30721;49.380;7.736;2023-06-22T10:18:16;6.75;;;5.65;;
44985;SDS011;30721;49.380;7.736;2023-06-22T10:20:43;6.13;;;5.57;;
44985;SDS011;30721;49.380;7.736;2023-06-22T10:23:08;7.90;;;5.88;;
44985;SDS011;30721;49.380;7.736;2023-06-22T10:25:34;7.10;;;6.20;;
44985;SDS011;30721;49.380;7.736;2023-06-22T10:28:00;5.80;;;5.30;;
44985;SDS011;30721;49.380;7.736;2023-06-22T10:30:25;7.03;;;6.10;;
44985;SDS011;30721;49.380;7.736;2023-06-22T10:32:51;8.50;;;5.65;;
44985;SDS011;30721;49.380;7.736;2023-06-22T10:35:20;6.00;;;5.40;;
44985;SDS011;30721;49.380;7.736;2023-06-22T10:37:46;7.47;;;5.88;;
44985;SDS011;30721;49.380;7.736;2023-06-22T10:40:13;7.63;;;6.47;;
44985;SDS011;30721;49.380;7.736;2023-06-22T10:42:39;8.50;;;5.95;;
44985;SDS011;30721;49.380;7.736;2023-06-22T10:45:04;6.53;;;5.85;;
44985;SDS011;30721;49.380;7.736;2023-06-22T10:47:30;7.22;;;5.40;;
44985;SDS011;30721;49.380;7.736;2023-06-22T10:49:56;7.20;;;5.43;;
44985;SDS011;30721;49.380;7.736;2023-06-22T10:52:21;8.50;;;6.03;;
44985;SDS011;30721;49.380;7.736;2023-06-22T10:54:47;7.82;;;5.43;;
44985;SDS011;30721;49.380;7.736;2023-06-22T10:57:13;6.50;;;5.80;;
44985;SDS011;30721;49.380;7.736;2023-06-22T10:59:39;6.63;;;6.00;;
44985;SDS011;30721;49.380;7.736;2023-06-22T11:02:04;6.28;;;5.68;;
44985;SDS011;30721;49.380;7.736;2023-06-22T11:04:30;7.93;;;5.88;;
44985;SDS011;30721;49.380;7.736;2023-06-22T11:06:55;6.75;;;6.05;;
44985;SDS011;30721;49.380;7.736;2023-06-22T11:09:21;6.18;;;5.57;;
44985;SDS011;30721;49.380;7.736;2023-06-22T11:11:47;6.68;;;5.38;;
44985;SDS011;30721;49.380;7.736;2023-06-22T11:14:13;7.00;;;6.28;;
44985;SDS011;30721;49.380;7.736;2023-06-22T11:16:39;6.05;;;5.65;;
44985;SDS011;30721;49.380;7.736;2023-06-22T11:19:04;7.60;;;6.22;;
44985;SDS011;30721;49.380;7.736;2023-06-22T11:21:30;8.63;;;6.03;;
44985;SDS011;30721;49.380;7.736;2023-06-22T11:23:56;6.25;;;5.75;;
44985;SDS011;30721;49.380;7.736;2023-06-22T11:26:22;7.00;;;6.07;;
44985;SDS011;30721;49.380;7.736;2023-06-22T11:28:48;6.60;;;5.60;;
44985;SDS011;30721;49.380;7.736;2023-06-22T11:31:14;8.45;;;6.00;;
44985;SDS011;30721;49.380;7.736;2023-06-22T11:33:39;6.70;;;5.30;;
44985;SDS011;30721;49.380;7.736;2023-06-22T11:36:05;6.30;;;5.35;;
44985;SDS011;30721;49.380;7.736;2023-06-22T11:38:31;5.55;;;5.10;;
44985;SDS011;30721;49.380;7.736;2023-06-22T11:41:00;7.53;;;5.95;;
44985;SDS011;30721;49.380;7.736;2023-06-22T11:43:25;6.93;;;5.63;;
44985;SDS011;30721;49.380;7.736;2023-06-22T11:45:51;6.55;;;5.35;;
44985;SDS011;30721;49.380;7.736;2023-06-22T11:48:16;7.93;;;6.18;;
44985;SDS011;30721;49.380;7.736;2023-06-22T11:50:42;8.10;;;5.78;;
44985;SDS011;30721;49.380;7.736;2023-06-22T11:53:08;6.32;;;5.72;;
44985;SDS011;30721;49.380;7.736;2023-06-22T11:55:33;6.60;;;6.00;;
44985;SDS011;30721;49.380;7.736;2023-06-22T11:57:59;6.55;;;5.68;;
44985;SDS011;30721;49.380;7.736;2023-06-22T12:00:28;6.38;;;5.78;;
44985;SDS011;30721;49.380;7.736;2023-06-22T12:02:54;8.75;;;6.10;;
44985;SDS011;30721;49.380;7.736;2023-06-22T12:05:21;7.22;;;6.45;;
44985;SDS011;30721;49.380;7.736;2023-06-22T12:07:47;7.60;;;6.03;;
44985;SDS011;30721;49.380;7.736;2023-06-22T12:10:13;7.13;;;6.10;;
44985;SDS011;30721;49.380;7.736;2023-06-22T12:12:39;5.93;;;5.38;;
44985;SDS011;30721;49.380;7.736;2023-06-22T12:15:04;6.57;;;5.82;;
44985;SDS011;30721;49.380;7.736;2023-06-22T12:17:30;7.65;;;6.95;;
44985;SDS011;30721;49.380;7.736;2023-06-22T12:19:58;6.88;;;5.90;;
44985;SDS011;30721;49.380;7.736;2023-06-22T12:22:23;7.00;;;6.30;;
44985;SDS011;30721;49.380;7.736;2023-06-22T12:24:49;8.85;;;6.95;;
44985;SDS011;30721;49.380;7.736;2023-06-22T12:27:14;9.20;;;6.53;;
44985;SDS011;30721;49.380;7.736;2023-06-22T12:29:43;7.80;;;5.93;;
44985;SDS011;30721;49.380;7.736;2023-06-22T12:32:10;6.95;;;5.70;;
44985;SDS011;30721;49.380;7.736;2023-06-22T12:34:37;7.65;;;6.63;;
44985;SDS011;30721;49.380;7.736;2023-06-22T12:37:04;7.25;;;6.55;;
44985;SDS011;30721;49.380;7.736;2023-06-22T12:39:31;8.48;;;6.47;;
44985;SDS011;30721;49.380;7.736;2023-06-22T12:41:57;6.57;;;5.97;;
44985;SDS011;30721;49.380;7.736;2023-06-22T12:44:22;8.40;;;6.20;;
44985;SDS011;30721;49.380;7.736;2023-06-22T12:46:47;8.15;;;5.90;;
44985;SDS011;30721;49.380;7.736;2023-06-22T12:49:13;10.63;;;5.65;;
44985;SDS011;30721;49.380;7.736;2023-06-22T12:51:42;7.28;;;5.90;;
44985;SDS011;30721;49.380;7.736;2023-06-22T12:54:08;8.43;;;4.88;;
44985;SDS011;30721;49.380;7.736;2023-06-22T12:56:34;7.15;;;5.07;;
44985;SDS011;30721;49.380;7.736;2023-06-22T12:58:59;7.47;;;4.97;;
44985;SDS011;30721;49.380;7.736;2023-06-22T13:01:27;9.75;;;4.80;;
44985;SDS011;30721;49.380;7.736;2023-06-22T13:03:53;7.78;;;5.10;;
44985;SDS011;30721;49.380;7.736;2023-06-22T13:06:18;8.02;;;5.28;;
44985;SDS011;30721;49.380;7.736;2023-06-22T13:08:44;11.32;;;5.30;;
44985;SDS011;30721;49.380;7.736;2023-06-22T13:11:09;8.32;;;5.22;;
44985;SDS011;30721;49.380;7.736;2023-06-22T13:13:35;6.47;;;4.95;;
44985;SDS011;30721;49.380;7.736;2023-06-22T13:16:00;7.65;;;5.65;;
44985;SDS011;30721;49.380;7.736;2023-06-22T13:18:26;8.82;;;5.60;;
44985;SDS011;30721;49.380;7.736;2023-06-22T13:20:51;9.07;;;5.13;;
44985;SDS011;30721;49.380;7.736;2023-06-22T13:23:20;6.50;;;5.32;;
44985;SDS011;30721;49.380;7.736;2023-06-22T13:25:46;9.20;;;5.45;;
44985;SDS011;30721;49.380;7.736;2023-06-22T13:28:11;9.35;;;5.30;;
44985;SDS011;30721;49.380;7.736;2023-06-22T13:30:39;11.63;;;5.93;;
44985;SDS011;30721;49.380;7.736;2023-06-22T13:33:05;9.13;;;6.28;;
44985;SDS011;30721;49.380;7.736;2023-06-22T13:35:31;8.50;;;5.30;;
44985;SDS011;30721;49.380;7.736;2023-06-22T13:37:56;11.15;;;5.57;;
44985;SDS011;30721;49.380;7.736;2023-06-22T13:40:22;8.98;;;5.75;;
44985;SDS011;30721;49.380;7.736;2023-06-22T13:42:48;10.38;;;6.35;;
44985;SDS011;30721;49.380;7.736;2023-06-22T13:45:13;10.77;;;5.90;;
44985;SDS011;30721;49.380;7.736;2023-06-22T13:47:41;8.95;;;6.13;;
44985;SDS011;30721;49.380;7.736;2023-06-22T13:50:07;9.45;;;6.03;;
44985;SDS011;30721;49.380;7.736;2023-06-22T13:52:33;8.38;;;5.90;;
44985;SDS011;30721;49.380;7.736;2023-06-22T13:54:58;7.20;;;6.03;;
44985;SDS011;30721;49.380;7.736;2023-06-22T13:57:23;7.78;;;6.00;;
44985;SDS011;30721;49.380;7.736;2023-06-22T13:59:49;7.53;;;5.75;;
44985;SDS011;30721;49.380;7.736;2023-06-22T14:02:14;10.55;;;5.45;;
44985;SDS011;30721;49.380;7.736;2023-06-22T14:04:40;8.10;;;5.30;;
44985;SDS011;30721;49.380;7.736;2023-06-22T14:07:05;8.75;;;5.20;;
44985;SDS011;30721;49.380;7.736;2023-06-22T14:09:31;8.60;;;5.20;;
44985;SDS011;30721;49.380;7.736;2023-06-22T14:11:56;7.22;;;5.40;;
44985;SDS011;30721;49.380;7.736;2023-06-22T14:14:22;9.95;;;5.47;;
44985;SDS011;30721;49.380;7.736;2023-06-22T14:16:47;8.77;;;5.00;;
44985;SDS011;30721;49.380;7.736;2023-06-22T14:19:16;6.85;;;5.57;;
44985;SDS011;30721;49.380;7.736;2023-06-22T14:21:42;9.25;;;5.65;;
44985;SDS011;30721;49.380;7.736;2023-06-22T14:24:07;10.23;;;5.10;;
44985;SDS011;30721;49.380;7.736;2023-06-22T14:26:33;8.52;;;5.03;;
44985;SDS011;30721;49.380;7.736;2023-06-22T14:28:58;8.98;;;4.95;;
44985;SDS011;30721;49.380;7.736;2023-06-22T14:31:24;6.93;;;4.75;;
44985;SDS011;30721;49.380;7.736;2023-06-22T14:33:49;10.68;;;5.53;;
44985;SDS011;30721;49.380;7.736;2023-06-22T14:36:15;9.40;;;5.32;;
44985;SDS011;30721;49.380;7.736;2023-06-22T14:38:42;8.27;;;5.28;;
44985;SDS011;30721;49.380;7.736;2023-06-22T14:41:08;10.40;;;5.53;;
44985;SDS011;30721;49.380;7.736;2023-06-22T14:43:33;10.40;;;5.32;;
44985;SDS011;30721;49.380;7.736;2023-06-22T14:45:58;8.75;;;5.15;;
44985;SDS011;30721;49.380;7.736;2023-06-22T14:48:24;8.68;;;4.75;;
44985;SDS011;30721;49.380;7.736;2023-06-22T14:50:50;10.40;;;5.18;;
44985;SDS011;30721;49.380;7.736;2023-06-22T14:53:16;10.40;;;5.20;;
44985;SDS011;30721;49.380;7.736;2023-06-22T14:55:41;9.75;;;5.40;;
44985;SDS011;30721;49.380;7.736;2023-06-22T14:58:07;10.13;;;4.80;;
44985;SDS011;30721;49.380;7.736;2023-06-22T15:00:35;8.82;;;4.97;;
44985;SDS011;30721;49.380;7.736;2023-06-22T15:03:04;7.45;;;4.75;;
44985;SDS011;30721;49.380;7.736;2023-06-22T15:05:32;8.07;;;4.85;;
44985;SDS011;30721;49.380;7.736;2023-06-22T15:07:57;8.52;;;5.10;;
44985;SDS011;30721;49.380;7.736;2023-06-22T15:10:23;7.88;;;4.82;;
44985;SDS011;30721;49.380;7.736;2023-06-22T15:12:49;8.40;;;5.35;;
44985;SDS011;30721;49.380;7.736;2023-06-22T15:15:15;9.52;;;5.55;;
44985;SDS011;30721;49.380;7.736;2023-06-22T15:17:40;7.68;;;4.93;;
44985;SDS011;30721;49.380;7.736;2023-06-22T15:20:06;6.90;;;4.88;;
44985;SDS011;30721;49.380;7.736;2023-06-22T15:22:31;9.40;;;5.00;;